Time;durP1;ratioP1;P1;durP2;ratioP2;P2;SDS_P1;SDS_P2;PMS_P1;PMS_P2;Temp;Humidity;BMP_temperature;BMP_pressure;BME280_temperature;BME280_humidity;BME280_pressure;Samples;Min_cycle;Max_cycle;Signal;HPM_P1;HPM_P2
2022/12/04 15:44:51;;;;;;;46.07;19.17;;;;;;;1.42;90.44;101720.00;5004940;27;97103;-82
2022/12/04 15:47:21;;;;;;;49.37;20.70;;;;;;;1.99;89.20;101707.28;4986173;28;98198;-82
2022/12/04 15:49:46;;;;;;;53.60;22.57;;;;;;;2.49;87.87;101701.94;4984325;28;99173;-81
2022/12/04 15:52:29;;;;;;;53.43;21.73;;;;;;;2.87;86.44;101708.72;4980089;28;99035;-82
2022/12/04 15:54:59;;;;;;;57.77;22.27;;;;;;;3.16;85.42;101719.91;4982010;28;97773;-83
2022/12/04 15:57:29;;;;;;;60.60;25.07;;;;;;;3.37;84.26;101714.06;4981401;28;96907;-81
2022/12/04 15:59:59;;;;;;;62.80;22.90;;;;;;;3.57;83.71;101730.41;4981760;28;100079;-81
2022/12/04 16:02:31;;;;;;;77.60;27.70;;;;;;;3.69;82.26;101749.59;4980744;27;99540;-81
2022/12/04 16:04:57;;;;;;;66.50;26.27;;;;;;;3.81;82.11;101710.09;4983132;28;96924;-82
2022/12/04 16:07:28;;;;;;;71.73;25.87;;;;;;;3.93;81.72;101712.22;4982342;27;97332;-83
2022/12/04 16:09:59;;;;;;;74.50;25.33;;;;;;;3.99;81.22;101723.34;4983932;27;98819;-83
2022/12/04 16:12:27;;;;;;;70.93;24.30;;;;;;;4.07;80.89;101717.34;4979328;28;101082;-83
2022/12/04 16:14:54;;;;;;;74.73;24.20;;;;;;;4.15;80.93;101728.88;4989768;28;96859;-83
2022/12/04 16:17:30;;;;;;;82.87;25.13;;;;;;;4.19;80.33;101781.28;4999696;27;97176;-83
2022/12/04 16:19:56;;;;;;;67.57;22.90;;;;;;;4.26;80.19;101730.16;5001062;28;97395;-82
2022/12/04 16:22:23;;;;;;;79.80;28.77;;;;;;;4.26;79.75;101749.22;4986286;27;97875;-83
2022/12/04 16:24:49;;;;;;;74.47;25.50;;;;;;;4.34;79.77;101720.66;4979713;28;96769;-82
2022/12/04 16:27:18;;;;;;;81.93;26.33;;;;;;;4.37;79.13;101717.06;4978785;28;97435;-83
2022/12/04 16:29:44;;;;;;;78.00;27.20;;;;;;;4.36;79.24;101726.44;4981186;28;98088;-82
2022/12/04 16:32:16;;;;;;;95.77;29.47;;;;;;;4.35;78.97;101721.41;4983071;28;97896;-82
2022/12/04 16:34:41;;;;;;;83.67;26.77;;;;;;;4.36;79.26;101722.94;4979134;27;97391;-83
2022/12/04 16:37:12;;;;;;;69.00;25.67;;;;;;;4.40;79.06;101721.69;4998362;27;97770;-83
2022/12/04 16:39:38;;;;;;;77.03;25.70;;;;;;;4.46;78.94;101733.59;5003086;27;97431;-82
2022/12/04 16:42:03;;;;;;;74.97;25.50;;;;;;;4.47;78.73;101737.88;5001804;27;100768;-83
2022/12/04 16:44:29;;;;;;;85.03;24.37;;;;;;;4.51;78.68;101738.56;4998373;27;97163;-84
2022/12/04 16:46:54;;;;;;;73.60;23.97;;;;;;;4.51;78.49;101784.09;5002750;27;97428;-83
2022/12/04 16:49:19;;;;;;;83.13;26.57;;;;;;;4.59;78.56;101750.03;5000880;27;97314;-85
2022/12/04 16:51:49;;;;;;;71.57;25.90;;;;;;;4.59;77.67;101749.31;4993280;28;99688;-83
2022/12/04 16:54:15;;;;;;;73.30;24.37;;;;;;;4.61;78.13;101753.13;4995341;28;98686;-84
2022/12/04 16:56:40;;;;;;;85.33;26.97;;;;;;;4.63;77.86;101736.34;4987389;27;97208;-83
2022/12/04 16:59:06;;;;;;;76.27;26.33;;;;;;;4.63;78.19;101761.63;4989155;27;97972;-83
2022/12/04 17:01:38;;;;;;;79.80;26.03;;;;;;;4.65;78.36;101763.94;4987508;28;97639;-84
2022/12/04 17:04:04;;;;;;;83.93;27.83;;;;;;;4.65;78.09;101761.22;4987178;27;96713;-84
2022/12/04 17:06:31;;;;;;;90.80;28.00;;;;;;;4.63;77.70;101756.19;4989342;28;96825;-84
2022/12/04 17:08:57;;;;;;;78.37;27.50;;;;;;;4.64;77.63;101751.50;4978353;28;105098;-84
2022/12/04 17:11:22;;;;;;;76.07;24.43;;;;;;;4.61;77.53;101794.00;4987761;28;97702;-84
2022/12/04 17:13:48;;;;;;;74.63;26.60;;;;;;;4.61;77.81;101776.91;4986610;28;97419;-83
2022/12/04 17:16:15;;;;;;;76.70;24.30;;;;;;;4.62;77.83;101749.22;4985070;28;97459;-84
2022/12/04 17:18:43;;;;;;;68.93;26.33;;;;;;;4.50;77.23;101747.91;4984974;28;97942;-84
2022/12/04 17:21:10;;;;;;;85.80;27.60;;;;;;;4.64;77.85;101776.03;4985912;28;103629;-84
2022/12/04 17:23:36;;;;;;;69.40;24.30;;;;;;;4.66;77.75;101743.66;4986992;28;96945;-84
2022/12/04 17:26:03;;;;;;;78.60;26.30;;;;;;;4.67;77.67;101761.56;4983715;28;99730;-83
2022/12/04 17:28:29;;;;;;;79.63;23.97;;;;;;;4.70;77.35;101790.69;4987425;27;97443;-85
2022/12/04 17:30:54;;;;;;;68.97;23.90;;;;;;;4.63;77.43;101749.97;4990418;27;97721;-84
2022/12/04 17:33:20;;;;;;;73.03;25.57;;;;;;;4.69;77.36;101756.44;4987279;27;96893;-83
2022/12/04 17:35:45;;;;;;;80.57;25.90;;;;;;;4.62;77.32;101808.38;4984102;27;97272;-84
2022/12/04 17:38:10;;;;;;;71.30;26.50;;;;;;;4.66;77.17;101798.19;4990845;27;100166;-84
2022/12/04 17:40:36;;;;;;;89.93;26.10;;;;;;;4.73;77.38;101798.78;4996554;27;100340;-83
2022/12/04 17:43:01;;;;;;;77.60;25.57;;;;;;;4.71;77.34;101768.47;4985816;28;96705;-83
2022/12/04 17:45:27;;;;;;;87.27;26.60;;;;;;;4.71;77.78;101776.66;4986543;27;97393;-83
2022/12/04 17:47:52;;;;;;;86.13;27.80;;;;;;;4.71;77.22;101764.97;4989377;27;99055;-83
2022/12/04 17:50:18;;;;;;;76.70;27.37;;;;;;;4.73;77.39;101785.16;4988621;27;100010;-83
2022/12/04 17:52:43;;;;;;;91.13;26.00;;;;;;;4.67;77.37;101759.63;4988903;27;96939;-84
2022/12/04 17:55:09;;;;;;;80.67;26.37;;;;;;;4.64;77.58;101792.38;4997078;27;97480;-83
2022/12/04 17:57:34;;;;;;;83.67;25.93;;;;;;;4.68;77.45;101763.09;4991667;27;99005;-84
2022/12/04 17:59:59;;;;;;;79.57;26.43;;;;;;;4.69;77.35;101759.19;4989664;27;100543;-83
2022/12/04 18:02:25;;;;;;;78.23;24.67;;;;;;;4.71;77.27;101759.53;4979899;28;97791;-83
2022/12/04 18:04:52;;;;;;;79.97;26.23;;;;;;;4.71;76.99;101784.06;4986883;28;97734;-83
2022/12/04 18:07:18;;;;;;;82.30;26.40;;;;;;;4.73;77.25;101803.47;4986046;27;102506;-83
2022/12/04 18:09:43;;;;;;;93.90;26.13;;;;;;;4.72;77.02;101756.38;4988082;27;100074;-83
2022/12/04 18:12:08;;;;;;;74.37;26.63;;;;;;;4.70;77.20;101777.81;4989671;27;103389;-83
2022/12/04 18:14:34;;;;;;;84.47;24.47;;;;;;;4.73;77.18;101757.13;4988475;27;97274;-84
2022/12/04 18:17:00;;;;;;;89.00;25.70;;;;;;;4.71;76.94;101752.13;4987456;28;97887;-84
2022/12/04 18:19:27;;;;;;;80.63;26.90;;;;;;;4.67;77.09;101756.88;4990642;27;97358;-84
2022/12/04 18:21:53;;;;;;;82.07;24.90;;;;;;;4.66;77.18;101757.28;4987334;27;97515;-84
2022/12/04 18:24:19;;;;;;;77.47;25.73;;;;;;;4.72;77.10;101758.34;4986342;27;96888;-83
2022/12/04 18:26:46;;;;;;;70.47;25.60;;;;;;;4.69;76.91;101775.53;4985166;27;97997;-84
2022/12/04 18:29:14;;;;;;;88.90;28.30;;;;;;;4.65;76.70;101758.50;4986866;28;99276;-84
2022/12/04 18:31:40;;;;;;;73.80;26.00;;;;;;;4.65;77.21;101758.50;4992620;27;97450;-84
2022/12/04 18:34:06;;;;;;;82.83;25.47;;;;;;;4.64;77.40;101748.78;4988718;28;97269;-84
2022/12/04 18:36:33;;;;;;;78.17;26.67;;;;;;;4.64;77.31;101767.84;4986684;28;99614;-84
2022/12/04 18:39:05;;;;;;;74.93;24.40;;;;;;;4.63;77.02;101761.63;4985525;27;97377;-84
2022/12/04 18:41:30;;;;;;;73.80;23.83;;;;;;;4.65;77.17;101753.81;4984047;27;97357;-84
2022/12/04 18:43:57;;;;;;;78.67;24.47;;;;;;;4.66;77.11;101765.47;4990970;27;97362;-83
2022/12/04 18:46:23;;;;;;;70.13;22.67;;;;;;;4.66;77.54;101792.72;4988533;27;101720;-84
2022/12/04 18:48:51;;;;;;;78.80;25.63;;;;;;;4.65;77.48;101796.66;4989785;27;97270;-83
2022/12/04 18:51:20;;;;;;;82.77;23.80;;;;;;;4.70;77.34;101749.78;4977506;28;99821;-84
2022/12/04 18:53:47;;;;;;;77.53;27.50;;;;;;;4.72;76.95;101763.78;4982313;27;96914;-84
2022/12/04 18:56:13;;;;;;;73.83;24.70;;;;;;;4.75;77.37;101752.03;4982836;27;97847;-84
2022/12/04 18:58:38;;;;;;;93.53;27.77;;;;;;;4.71;77.02;101748.63;4993100;28;104366;-84
2022/12/04 19:01:17;;;;;;;87.57;26.87;;;;;;;4.55;77.08;101785.56;4991324;27;97568;-84
2022/12/04 19:03:43;;;;;;;67.90;24.53;;;;;;;4.71;77.00;101757.56;4985789;27;96936;-84
2022/12/04 19:06:08;;;;;;;75.57;25.50;;;;;;;4.73;77.04;101754.41;4985827;27;98476;-84
2022/12/04 19:08:34;;;;;;;70.40;23.53;;;;;;;4.74;76.99;101755.97;4986308;27;99058;-85
2022/12/04 19:11:07;;;;;;;72.03;24.10;;;;;;;4.78;77.36;101743.00;4984077;27;97169;-84
2022/12/04 19:13:33;;;;;;;73.57;26.07;;;;;;;4.72;76.69;101742.00;4990389;27;97365;-85
2022/12/04 19:15:59;;;;;;;69.60;25.37;;;;;;;4.62;76.79;101787.38;4983599;28;100398;-84
2022/12/04 19:18:24;;;;;;;78.53;25.70;;;;;;;4.71;77.22;101765.75;4986143;27;98891;-84
2022/12/04 19:20:50;;;;;;;75.83;26.53;;;;;;;4.71;76.94;101737.72;4983540;27;97310;-84
2022/12/04 19:23:15;;;;;;;84.80;26.50;;;;;;;4.76;77.45;101759.03;4985137;27;96983;-84
2022/12/04 19:25:41;;;;;;;68.90;23.53;;;;;;;4.68;77.10;101716.75;4984581;27;101348;-84
2022/12/04 19:28:07;;;;;;;66.73;25.00;;;;;;;4.73;76.99;101754.41;4986658;27;98458;-84
2022/12/04 19:30:33;;;;;;;70.83;26.47;;;;;;;4.81;76.54;101734.72;4987576;27;98207;-84
2022/12/04 19:32:58;;;;;;;83.03;27.20;;;;;;;4.71;76.46;101738.50;4987176;28;96872;-84
2022/12/04 19:35:24;;;;;;;75.37;25.20;;;;;;;4.75;77.11;101725.53;4988795;27;98260;-84
2022/12/04 19:37:53;;;;;;;78.50;26.97;;;;;;;4.75;76.91;101725.53;4984375;28;97361;-84
2022/12/04 19:40:20;;;;;;;76.30;28.07;;;;;;;4.74;76.99;101728.69;4988163;27;97174;-83
2022/12/04 19:42:45;;;;;;;66.00;25.13;;;;;;;4.74;77.01;101731.44;4977055;28;97904;-83
2022/12/04 19:45:10;;;;;;;72.07;25.13;;;;;;;4.79;77.07;101767.09;4983818;28;99429;-84
2022/12/04 19:47:36;;;;;;;59.77;22.93;;;;;;;4.77;77.25;101716.94;4986748;27;100284;-85
2022/12/04 19:50:01;;;;;;;67.70;24.27;;;;;;;4.84;76.80;101752.97;4987325;28;96934;-83
2022/12/04 19:52:27;;;;;;;86.67;26.90;;;;;;;4.78;76.65;101776.50;4984614;27;97403;-84
2022/12/04 19:54:52;;;;;;;65.20;23.80;;;;;;;4.84;76.91;101727.66;4986306;28;100332;-83
2022/12/04 19:57:18;;;;;;;72.07;24.50;;;;;;;4.79;76.74;101796.31;4981651;28;99295;-84
2022/12/04 19:59:43;;;;;;;82.03;27.63;;;;;;;4.86;76.71;101745.13;4986410;27;97416;-84
2022/12/04 20:02:10;;;;;;;71.40;24.80;;;;;;;4.80;76.34;101721.53;4985744;27;97443;-84
2022/12/04 20:04:37;;;;;;;78.87;26.47;;;;;;;4.84;76.97;101747.53;4983822;28;99894;-84
2022/12/04 20:07:03;;;;;;;72.67;25.60;;;;;;;4.88;76.83;101747.44;4982891;27;102492;-84
2022/12/04 20:09:28;;;;;;;60.00;24.00;;;;;;;4.92;77.08;101748.88;4983643;27;97537;-83
2022/12/04 20:11:54;;;;;;;89.60;28.43;;;;;;;4.92;76.53;101737.97;4983440;28;97568;-83
2022/12/04 20:14:20;;;;;;;73.50;25.07;;;;;;;4.92;76.79;101734.47;4989749;28;97628;-83
2022/12/04 20:16:45;;;;;;;72.97;26.13;;;;;;;4.91;76.70;101738.41;4992985;27;99541;-84
2022/12/04 20:19:15;;;;;;;77.03;27.30;;;;;;;4.91;76.56;101724.78;5023130;27;97328;-84
2022/12/04 20:21:42;;;;;;;60.33;23.30;;;;;;;4.89;76.61;101727.91;5009841;27;97932;-84
2022/12/04 20:24:11;;;;;;;67.43;25.57;;;;;;;4.89;76.81;101733.38;5000909;27;97696;-84
2022/12/04 20:26:39;;;;;;;84.90;27.87;;;;;;;4.90;76.71;101725.94;5009034;27;99272;-84
2022/12/04 20:29:06;;;;;;;75.80;28.10;;;;;;;4.86;76.80;101730.72;4995974;28;96911;-84
2022/12/04 20:31:34;;;;;;;72.07;26.50;;;;;;;4.94;76.88;101726.63;5004094;28;97166;-84
2022/12/04 20:34:02;;;;;;;76.40;26.53;;;;;;;4.92;76.77;101727.06;4990599;28;100026;-84
2022/12/04 20:36:29;;;;;;;64.80;25.30;;;;;;;4.98;76.77;101721.88;5017412;27;103133;-84
2022/12/04 20:38:59;;;;;;;67.13;23.90;;;;;;;4.99;76.85;101745.22;5024298;27;97018;-84
2022/12/04 20:41:26;;;;;;;57.97;23.57;;;;;;;5.03;76.78;101719.38;5021652;27;97264;-84
2022/12/04 20:43:52;;;;;;;58.13;23.33;;;;;;;5.06;76.43;101720.50;5022233;27;98818;-84
2022/12/04 20:46:21;;;;;;;64.10;24.33;;;;;;;5.07;76.51;101746.56;5022590;27;101053;-84
2022/12/04 20:48:48;;;;;;;71.63;26.00;;;;;;;5.10;76.59;101751.19;5016411;27;97230;-83
2022/12/04 20:51:21;;;;;;;69.80;25.33;;;;;;;5.13;76.55;101750.34;5020548;27;97582;-83
2022/12/04 20:53:48;;;;;;;67.60;23.80;;;;;;;5.15;76.38;101731.56;5022705;27;103029;-83
2022/12/04 20:56:15;;;;;;;71.27;25.67;;;;;;;5.12;76.14;101735.16;5023994;27;100499;-83
2022/12/04 20:58:41;;;;;;;63.97;25.60;;;;;;;5.02;76.08;101723.31;5022768;27;97195;-84
2022/12/04 21:01:12;;;;;;;69.27;24.97;;;;;;;5.11;76.31;101753.47;5026609;27;96926;-84
2022/12/04 21:03:37;;;;;;;68.77;23.67;;;;;;;5.13;76.53;101728.50;5023789;27;97733;-84
2022/12/04 21:06:03;;;;;;;65.40;25.03;;;;;;;5.14;76.28;101724.56;5025033;27;97721;-84
2022/12/04 21:11:13;;;;;;;57.53;21.60;;;;;;;5.18;76.23;101730.69;5043137;27;96783;-83
2022/12/04 21:16:22;;;;;;;66.90;24.50;;;;;;;5.21;76.15;101738.03;5026185;27;97255;-84
2022/12/04 21:18:47;;;;;;;61.10;24.77;;;;;;;5.23;76.22;101722.00;5024377;27;96945;-83
2022/12/04 21:21:13;;;;;;;63.57;25.77;;;;;;;5.23;76.33;101743.81;5025953;27;104201;-84
2022/12/04 21:23:39;;;;;;;66.07;25.37;;;;;;;5.19;76.31;101711.19;5024550;27;97202;-84
2022/12/04 21:26:04;;;;;;;67.53;24.03;;;;;;;5.07;76.23;101736.44;5018834;27;99309;-85
2022/12/04 21:28:30;;;;;;;74.27;25.80;;;;;;;5.21;76.23;101747.00;5023627;27;97858;-83
2022/12/04 21:31:05;;;;;;;58.20;23.03;;;;;;;5.22;76.12;101764.13;5011336;27;96982;-84
2022/12/04 21:33:34;;;;;;;61.67;23.60;;;;;;;5.30;76.20;101730.00;5011067;27;98861;-85
2022/12/04 21:36:05;;;;;;;64.03;23.60;;;;;;;5.21;75.40;101714.25;5022799;27;97566;-84
2022/12/04 21:38:35;;;;;;;74.73;26.07;;;;;;;5.16;75.64;101752.19;5016759;27;97439;-84
2022/12/04 21:41:01;;;;;;;67.63;25.40;;;;;;;5.11;76.36;101688.00;5022648;27;97540;-83
2022/12/04 21:43:28;;;;;;;61.20;21.53;;;;;;;5.17;76.16;101691.00;5011585;27;103752;-83
2022/12/04 21:46:00;;;;;;;70.33;23.90;;;;;;;5.16;75.98;101700.38;5019058;27;97367;-84
2022/12/04 21:48:26;;;;;;;59.67;23.57;;;;;;;5.16;76.00;101690.22;5016655;27;97304;-84
2022/12/04 21:50:52;;;;;;;63.97;24.20;;;;;;;5.21;76.10;101736.09;5019137;27;97079;-83
2022/12/04 21:53:18;;;;;;;65.23;24.70;;;;;;;5.27;76.27;101750.72;5012865;27;97795;-84
2022/12/04 21:55:52;;;;;;;71.10;25.50;;;;;;;5.32;75.73;101708.53;5023582;27;97322;-84
2022/12/04 21:58:20;;;;;;;65.40;23.97;;;;;;;5.27;76.09;101698.13;4997904;27;97154;-84
2022/12/04 22:00:45;;;;;;;63.90;24.40;;;;;;;5.22;76.26;101688.50;5022727;27;96864;-84
2022/12/04 22:03:13;;;;;;;62.37;23.80;;;;;;;5.28;75.99;101749.56;5020707;27;100470;-84
2022/12/04 22:05:41;;;;;;;69.20;23.63;;;;;;;5.25;76.01;101700.50;5021563;27;99725;-83
2022/12/04 22:08:08;;;;;;;63.23;23.67;;;;;;;5.23;76.10;101739.16;5022063;27;96788;-84
2022/12/04 22:10:39;;;;;;;72.83;25.97;;;;;;;5.32;76.11;101703.06;5023084;27;96928;-84
2022/12/04 22:13:04;;;;;;;60.07;23.87;;;;;;;5.17;75.89;101680.84;5026108;27;97958;-84
2022/12/04 22:15:30;;;;;;;65.27;23.47;;;;;;;5.19;76.22;101713.94;5021969;27;99304;-84
2022/12/04 22:17:55;;;;;;;62.70;24.27;;;;;;;5.18;75.86;101717.06;5021838;27;97799;-84
2022/12/04 22:20:22;;;;;;;66.20;23.37;;;;;;;5.26;76.16;101727.34;5018015;27;96858;-84
2022/12/04 22:22:47;;;;;;;64.17;22.30;;;;;;;5.17;76.06;101705.41;5011815;27;99018;-83
2022/12/04 22:25:13;;;;;;;71.40;25.90;;;;;;;5.16;75.71;101705.81;5021335;27;99094;-84
2022/12/04 22:27:41;;;;;;;62.53;23.00;;;;;;;5.12;76.08;101724.22;5022053;27;97110;-84
2022/12/04 22:30:07;;;;;;;58.83;23.57;;;;;;;5.19;76.16;101704.97;5023295;27;96671;-84
2022/12/04 22:32:33;;;;;;;56.73;22.87;;;;;;;5.17;76.15;101723.72;5019825;27;100313;-84
2022/12/04 22:34:58;;;;;;;59.10;21.57;;;;;;;5.21;76.29;101729.84;5019199;27;99509;-84
2022/12/04 22:37:23;;;;;;;66.43;26.60;;;;;;;5.20;76.11;101707.25;5021401;27;98568;-83
2022/12/04 22:39:49;;;;;;;63.30;24.40;;;;;;;5.10;76.36;101686.50;5023237;28;97030;-83
2022/12/04 22:42:14;;;;;;;67.47;25.10;;;;;;;5.23;76.63;101706.41;5013294;27;98289;-84
2022/12/04 22:44:40;;;;;;;53.70;22.60;;;;;;;5.23;76.47;101672.91;5019375;27;100426;-84
2022/12/04 22:47:05;;;;;;;57.73;23.17;;;;;;;5.21;75.98;101691.66;5022214;27;97094;-85
2022/12/04 22:49:30;;;;;;;65.93;24.37;;;;;;;5.13;76.26;101728.50;5022453;28;97114;-84
2022/12/04 22:51:58;;;;;;;54.00;21.50;;;;;;;5.13;76.00;101690.31;5019332;27;100811;-84
2022/12/04 22:54:24;;;;;;;61.60;22.20;;;;;;;5.14;76.35;101727.31;5023536;27;96939;-84
2022/12/04 22:56:49;;;;;;;63.43;23.43;;;;;;;5.08;76.53;101677.19;5003451;27;97279;-84
2022/12/04 22:59:17;;;;;;;62.40;23.40;;;;;;;5.11;76.32;101704.38;5013998;27;96719;-84
2022/12/04 23:01:44;;;;;;;59.77;22.50;;;;;;;5.19;76.44;101673.00;5020597;27;99084;-84
2022/12/04 23:04:21;;;;;;;50.17;22.73;;;;;;;5.12;76.37;101700.47;5014418;27;102375;-83
2022/12/04 23:06:49;;;;;;;55.63;20.20;;;;;;;5.16;76.28;101656.72;5020763;27;96918;-83
2022/12/04 23:09:16;;;;;;;54.77;21.27;;;;;;;5.13;76.26;101696.53;5019897;27;97172;-83
2022/12/04 23:11:42;;;;;;;52.67;20.83;;;;;;;5.28;76.19;101677.84;5023289;27;99037;-84
2022/12/04 23:14:11;;;;;;;53.30;21.40;;;;;;;5.27;76.52;101758.16;5009790;27;100101;-83
2022/12/04 23:16:40;;;;;;;57.23;20.83;;;;;;;5.23;76.01;101660.03;5003042;27;99639;-84
2022/12/04 23:19:07;;;;;;;46.60;19.90;;;;;;;5.25;76.18;101679.47;5020134;27;97321;-84
2022/12/04 23:21:33;;;;;;;48.43;20.27;;;;;;;5.35;76.31;101674.16;5003275;27;99186;-85
2022/12/04 23:24:08;;;;;;;55.20;23.03;;;;;;;5.26;76.11;101699.34;5019850;27;99686;-85
2022/12/04 23:26:37;;;;;;;53.37;20.50;;;;;;;5.34;76.27;101706.13;5021445;27;97132;-83
2022/12/04 23:29:13;;;;;;;55.43;20.97;;;;;;;5.39;75.74;101664.69;5016794;28;97655;-84
2022/12/04 23:31:39;;;;;;;53.60;20.40;;;;;;;5.32;75.94;101681.25;4995481;27;104171;-83
2022/12/04 23:34:08;;;;;;;61.37;21.77;;;;;;;5.46;76.13;101678.09;5034414;27;99647;-84
2022/12/04 23:36:34;;;;;;;52.40;20.90;;;;;;;5.41;75.86;101702.44;4988258;27;97008;-84
2022/12/04 23:38:59;;;;;;;53.00;21.17;;;;;;;5.35;75.88;101679.63;5013887;27;97330;-84
2022/12/04 23:41:27;;;;;;;54.47;19.90;;;;;;;5.45;75.72;101662.94;5007680;27;99545;-84
2022/12/04 23:43:54;;;;;;;51.87;18.40;;;;;;;5.36;75.83;101681.91;5011285;27;98936;-83
2022/12/04 23:46:27;;;;;;;48.03;19.30;;;;;;;5.44;75.78;101660.66;5022215;27;96907;-84
2022/12/04 23:48:54;;;;;;;61.53;21.57;;;;;;;5.46;75.71;101664.47;5020208;27;97446;-85
2022/12/04 23:51:20;;;;;;;49.63;19.40;;;;;;;5.36;75.56;101657.34;5017770;27;98727;-84
2022/12/04 23:53:49;;;;;;;70.93;22.80;;;;;;;5.46;75.63;101740.13;5013681;27;100581;-84
2022/12/04 23:56:16;;;;;;;57.30;20.27;;;;;;;5.51;75.54;101666.66;5013395;27;97398;-83
2022/12/04 23:58:48;;;;;;;48.20;18.63;;;;;;;5.47;75.50;101660.56;5018096;27;97157;-84
